Time;durP1;ratioP1;P1;durP2;ratioP2;P2;SDS_P1;SDS_P2;PMS_P1;PMS_P2;Temp;Humidity;BMP_temperature;BMP_pressure;BME280_temperature;BME280_humidity;BME280_pressure;Samples;Min_cycle;Max_cycle;Signal;HPM_P1;HPM_P2
2021/03/27 00:01:52;;;;;;;64.50;32.72;;;;;;;;;;4917379;29;20488;-66
2021/03/27 00:04:24;;;;;;;66.60;34.20;;;;;;;;;;4918376;29;20409;-66
2021/03/27 00:06:56;;;;;;;63.30;32.38;;;;;;;;;;4917394;29;20032;-65
2021/03/27 00:09:22;;;;;;;61.78;32.30;;;;;;;;;;4917831;29;20032;-68
2021/03/27 00:11:58;;;;;;;62.63;32.30;;;;;;;;;;4917540;29;20088;-66
2021/03/27 00:14:43;;;;;;;60.00;30.02;;;;;;;;;;4900192;29;20056;-66
2021/03/27 00:17:11;;;;;;;55.75;27.95;;;;;;;;;;4917865;29;20024;-66
2021/03/27 00:19:41;;;;;;;59.35;29.25;;;;;;;;;;4919244;29;20025;-68
2021/03/27 00:22:14;;;;;;;55.75;29.42;;;;;;;;;;4904214;29;20024;-67
2021/03/27 00:24:55;;;;;;;57.50;27.90;;;;;;;;;;4921593;29;20036;-67
2021/03/27 00:27:23;;;;;;;50.75;27.55;;;;;;;;;;4920981;29;20035;-66
2021/03/27 00:29:52;;;;;;;53.85;27.35;;;;;;;;;;4921336;29;20028;-67
2021/03/27 00:32:29;;;;;;;48.65;25.77;;;;;;;;;;4920747;29;20032;-67
2021/03/27 00:34:57;;;;;;;53.72;26.75;;;;;;;;;;4903830;29;20368;-66
2021/03/27 00:37:24;;;;;;;51.15;25.83;;;;;;;;;;4920966;29;20025;-66
2021/03/27 00:40:07;;;;;;;48.17;27.02;;;;;;;;;;4920931;29;20040;-67
2021/03/27 00:42:38;;;;;;;45.80;24.15;;;;;;;;;;4904379;29;20028;-67
2021/03/27 00:45:09;;;;;;;48.80;25.15;;;;;;;;;;4904080;29;20409;-67
2021/03/27 00:47:40;;;;;;;44.72;23.15;;;;;;;;;;4920943;29;20025;-65
2021/03/27 00:50:06;;;;;;;45.08;23.58;;;;;;;;;;4921181;29;20035;-65
2021/03/27 00:52:47;;;;;;;43.40;22.48;;;;;;;;;;4920899;29;20028;-66
2021/03/27 00:55:15;;;;;;;40.78;21.70;;;;;;;;;;4920740;29;20024;-67
2021/03/27 00:57:43;;;;;;;41.10;21.40;;;;;;;;;;4920707;29;20409;-69
2021/03/27 01:00:09;;;;;;;37.75;20.33;;;;;;;;;;4920788;29;20020;-66
2021/03/27 01:02:37;;;;;;;35.20;20.17;;;;;;;;;;4920346;29;20020;-67
2021/03/27 01:05:06;;;;;;;38.05;20.25;;;;;;;;;;4920902;29;20035;-66
2021/03/27 01:07:32;;;;;;;39.15;21.33;;;;;;;;;;4920604;29;20032;-67
2021/03/27 01:10:15;;;;;;;40.60;21.17;;;;;;;;;;4920039;29;20543;-66
2021/03/27 01:12:43;;;;;;;37.85;20.45;;;;;;;;;;4920860;29;20063;-67
2021/03/27 01:15:12;;;;;;;35.90;19.73;;;;;;;;;;4920340;29;20026;-66
2021/03/27 01:17:41;;;;;;;39.60;20.58;;;;;;;;;;4920912;29;20573;-66
2021/03/27 01:20:16;;;;;;;39.78;20.20;;;;;;;;;;4920418;29;20024;-67
2021/03/27 01:22:43;;;;;;;34.42;18.80;;;;;;;;;;4919893;29;20111;-66
2021/03/27 01:25:10;;;;;;;38.42;20.23;;;;;;;;;;4920868;29;20519;-67
2021/03/27 01:27:41;;;;;;;36.22;19.73;;;;;;;;;;4919975;29;20480;-66
2021/03/27 01:30:08;;;;;;;37.60;20.57;;;;;;;;;;4919263;29;20024;-66
2021/03/27 01:32:40;;;;;;;37.20;20.38;;;;;;;;;;4919964;29;20576;-66
2021/03/27 01:35:13;;;;;;;38.65;20.13;;;;;;;;;;4919890;29;20028;-67
2021/03/27 01:37:54;;;;;;;37.78;20.50;;;;;;;;;;4919601;29;20020;-67
2021/03/27 01:40:27;;;;;;;43.55;22.02;;;;;;;;;;4920579;29;20028;-65
2021/03/27 01:43:02;;;;;;;42.33;22.52;;;;;;;;;;4920211;29;20059;-65
2021/03/27 01:45:47;;;;;;;43.30;22.45;;;;;;;;;;4920031;29;20035;-69
2021/03/27 01:48:19;;;;;;;45.30;22.50;;;;;;;;;;4903477;29;20424;-67
2021/03/27 01:50:45;;;;;;;;;;;;;;;;;;4919968;29;20030;-65
2021/03/27 01:53:18;;;;;;;41.97;21.83;;;;;;;;;;4919540;29;19911;-66
2021/03/27 01:55:44;;;;;;;;;;;;;;;;;;4920274;29;20024;-66
2021/03/27 01:58:25;;;;;;;40.28;21.30;;;;;;;;;;4919111;29;20278;-67
2021/03/27 02:01:20;;;;;;;38.28;20.45;;;;;;;;;;4919338;29;20052;-66
2021/03/27 02:04:17;;;;;;;36.92;20.20;;;;;;;;;;5111344;27;20429;-69
2021/03/27 02:06:46;;;;;;;36.33;20.30;;;;;;;;;;5110476;28;20466;-66
2021/03/27 02:09:18;;;;;;;37.33;20.48;;;;;;;;;;5111710;28;20073;-65
2021/03/27 02:11:50;;;;;;;37.20;20.60;;;;;;;;;;5111977;28;20019;-66
2021/03/27 02:14:16;;;;;;;44.88;22.55;;;;;;;;;;5111623;28;20020;-65
2021/03/27 02:16:49;;;;;;;41.03;21.83;;;;;;;;;;5111260;28;20028;-67
2021/03/27 02:19:34;;;;;;;44.03;22.17;;;;;;;;;;5111128;28;20373;-66
2021/03/27 02:22:06;;;;;;;40.83;21.65;;;;;;;;;;5111498;28;20032;-66
2021/03/27 02:24:32;;;;;;;;;;;;;;;;;;5112142;28;20446;-65
2021/03/27 02:27:03;;;;;;;39.63;20.70;;;;;;;;;;5111054;28;19912;-65
2021/03/27 02:29:47;;;;;;;38.85;20.65;;;;;;;;;;5111321;28;20016;-65
2021/03/27 02:32:36;;;;;;;41.95;21.50;;;;;;;;;;5110935;28;20077;-66
2021/03/27 02:35:14;;;;;;;39.38;20.85;;;;;;;;;;5082082;28;20048;-67
2021/03/27 02:37:59;;;;;;;41.45;20.75;;;;;;;;;;5111149;28;20110;-67
2021/03/27 02:40:28;;;;;;;41.38;22.13;;;;;;;;;;5110821;28;20030;-67
2021/03/27 02:42:57;;;;;;;43.38;22.08;;;;;;;;;;5111039;28;20032;-66
2021/03/27 02:45:26;;;;;;;39.88;21.02;;;;;;;;;;5111297;28;20040;-66
2021/03/27 02:47:58;;;;;;;41.78;21.52;;;;;;;;;;5110704;28;20081;-67
2021/03/27 02:50:43;;;;;;;41.58;21.85;;;;;;;;;;5110976;28;20016;-66
2021/03/27 02:53:38;;;;;;;49.33;24.35;;;;;;;;;;5110191;28;20066;-67
2021/03/27 02:56:10;;;;;;;44.58;22.70;;;;;;;;;;5048148;28;20041;-67
2021/03/27 02:58:54;;;;;;;40.80;20.73;;;;;;;;;;5047962;28;20037;-67
2021/03/27 03:01:27;;;;;;;40.80;20.27;;;;;;;;;;5047517;28;20033;-66
2021/03/27 03:04:03;;;;;;;39.70;20.10;;;;;;;;;;5047665;28;20057;-66
2021/03/27 03:06:41;;;;;;;41.05;20.77;;;;;;;;;;5047826;28;20127;-66
2021/03/27 03:09:10;;;;;;;38.60;21.75;;;;;;;;;;5047428;28;20028;-67
2021/03/27 03:11:59;;;;;;;41.03;21.38;;;;;;;;;;5047896;28;20029;-67
2021/03/27 03:14:25;;;;;;;39.10;20.58;;;;;;;;;;5039613;28;20025;-67
2021/03/27 03:16:51;;;;;;;36.70;21.15;;;;;;;;;;5034286;28;20513;-67
2021/03/27 03:19:20;;;;;;;38.00;21.02;;;;;;;;;;5034618;28;20127;-67
2021/03/27 03:21:56;;;;;;;36.65;20.13;;;;;;;;;;5033943;28;20437;-67
2021/03/27 03:24:25;;;;;;;35.20;20.42;;;;;;;;;;5034134;28;20052;-66
2021/03/27 03:26:51;;;;;;;38.53;20.23;;;;;;;;;;5034332;28;20049;-65
2021/03/27 03:29:26;;;;;;;40.15;20.75;;;;;;;;;;5017113;28;20064;-66
2021/03/27 03:31:52;;;;;;;38.67;21.50;;;;;;;;;;5050564;28;20063;-65
2021/03/27 03:34:24;;;;;;;39.65;20.77;;;;;;;;;;5096231;28;20061;-66
2021/03/27 03:36:54;;;;;;;41.07;20.80;;;;;;;;;;5096080;28;20024;-67
2021/03/27 03:39:35;;;;;;;41.25;21.27;;;;;;;;;;5095144;28;20673;-67
2021/03/27 03:42:20;;;;;;;40.40;20.67;;;;;;;;;;5096427;28;20024;-67
2021/03/27 03:45:04;;;;;;;36.63;19.70;;;;;;;;;;5096054;28;20037;-67
2021/03/27 03:47:42;;;;;;;39.05;19.63;;;;;;;;;;5096267;28;20031;-66
2021/03/27 03:50:15;;;;;;;36.88;20.30;;;;;;;;;;5096159;28;20020;-66
2021/03/27 03:53:01;;;;;;;39.78;20.55;;;;;;;;;;5096105;28;20035;-67
2021/03/27 03:55:34;;;;;;;37.50;20.67;;;;;;;;;;5096451;28;20020;-65
2021/03/27 03:58:23;;;;;;;36.35;19.52;;;;;;;;;;5095893;28;20024;-66
2021/03/27 04:00:49;;;;;;;34.80;19.70;;;;;;;;;;5087518;28;20040;-66
2021/03/27 04:03:24;;;;;;;37.90;19.70;;;;;;;;;;5095596;28;20463;-66
2021/03/27 04:05:55;;;;;;;39.85;19.70;;;;;;;;;;5096158;28;20024;-66
2021/03/27 04:08:32;;;;;;;36.65;20.02;;;;;;;;;;5095550;28;20020;-65
2021/03/27 04:11:06;;;;;;;33.90;19.52;;;;;;;;;;5095467;28;20365;-67
2021/03/27 04:13:32;;;;;;;35.40;19.75;;;;;;;;;;5095733;28;20035;-66
2021/03/27 04:16:08;;;;;;;37.15;19.63;;;;;;;;;;5096248;28;20028;-67
2021/03/27 04:18:40;;;;;;;37.72;19.50;;;;;;;;;;5095490;28;20020;-67
2021/03/27 04:21:16;;;;;;;37.85;20.58;;;;;;;;;;5096160;28;20028;-67
2021/03/27 04:24:11;;;;;;;35.53;19.38;;;;;;;;;;5096072;28;20024;-65
2021/03/27 04:26:37;;;;;;;34.90;18.67;;;;;;;;;;5081149;28;20044;-67
2021/03/27 04:29:25;;;;;;;32.33;18.50;;;;;;;;;;5094132;28;20027;-67
2021/03/27 04:32:07;;;;;;;33.25;17.90;;;;;;;;;;5095186;28;20020;-67
2021/03/27 04:34:35;;;;;;;35.30;18.40;;;;;;;;;;5095170;28;20028;-68
2021/03/27 04:37:12;;;;;;;35.53;19.15;;;;;;;;;;5095201;28;20020;-65
2021/03/27 04:39:41;;;;;;;34.72;18.55;;;;;;;;;;5094956;28;20494;-67
2021/03/27 04:42:13;;;;;;;36.05;19.80;;;;;;;;;;5093915;28;20356;-66
2021/03/27 04:44:53;;;;;;;34.28;18.48;;;;;;;;;;5095092;28;20016;-66
2021/03/27 04:47:29;;;;;;;38.40;20.17;;;;;;;;;;5094775;28;20062;-66
2021/03/27 04:50:07;;;;;;;35.30;19.15;;;;;;;;;;5094827;28;20051;-67
2021/03/27 04:52:36;;;;;;;34.42;19.50;;;;;;;;;;5092894;28;20046;-67
2021/03/27 04:55:08;;;;;;;36.13;20.63;;;;;;;;;;5090660;28;20111;-67
2021/03/27 04:57:51;;;;;;;38.25;21.08;;;;;;;;;;5094655;28;20054;-67
2021/03/27 05:00:23;;;;;;;39.00;20.50;;;;;;;;;;5092383;28;20043;-65
2021/03/27 05:03:04;;;;;;;37.25;20.25;;;;;;;;;;5093615;28;20123;-67
2021/03/27 05:05:41;;;;;;;38.53;19.88;;;;;;;;;;5091944;28;20409;-68
2021/03/27 05:08:15;;;;;;;39.97;20.02;;;;;;;;;;5091418;28;20020;-67
2021/03/27 05:10:45;;;;;;;34.22;19.30;;;;;;;;;;5089527;28;20030;-66
2021/03/27 05:13:23;;;;;;;36.20;20.20;;;;;;;;;;5091466;28;20375;-67
2021/03/27 05:15:52;;;;;;;36.83;19.67;;;;;;;;;;5091527;28;20094;-67
2021/03/27 05:18:18;;;;;;;40.13;21.13;;;;;;;;;;5092835;28;20100;-68
2021/03/27 05:21:05;;;;;;;34.97;20.10;;;;;;;;;;5092474;28;20353;-66
2021/03/27 05:23:34;;;;;;;38.92;20.85;;;;;;;;;;5090887;28;20073;-67
2021/03/27 05:26:08;;;;;;;38.88;20.25;;;;;;;;;;5090757;28;20039;-66
2021/03/27 05:28:41;;;;;;;40.38;19.95;;;;;;;;;;5092328;28;20133;-66
2021/03/27 05:31:26;;;;;;;32.60;19.25;;;;;;;;;;5093126;28;20016;-66
2021/03/27 05:34:10;;;;;;;39.55;19.90;;;;;;;;;;5092365;28;20466;-66
2021/03/27 05:36:36;;;;;;;39.03;19.83;;;;;;;;;;5091196;28;20374;-67
2021/03/27 05:39:18;;;;;;;40.10;19.48;;;;;;;;;;5091360;28;20020;-67
2021/03/27 05:41:56;;;;;;;35.72;19.63;;;;;;;;;;5092001;28;20047;-67
2021/03/27 05:44:31;;;;;;;38.85;19.88;;;;;;;;;;5092745;28;20016;-66
2021/03/27 05:47:16;;;;;;;38.42;21.63;;;;;;;;;;5090871;28;20379;-67
2021/03/27 05:49:57;;;;;;;42.58;21.65;;;;;;;;;;5091649;28;20035;-66
2021/03/27 05:52:42;;;;;;;43.10;21.67;;;;;;;;;;5091978;28;20099;-68
2021/03/27 05:55:14;;;;;;;37.45;19.25;;;;;;;;;;5092138;28;20413;-68
2021/03/27 05:57:49;;;;;;;39.92;18.98;;;;;;;;;;5092309;28;20016;-65
2021/03/27 06:00:21;;;;;;;36.35;18.85;;;;;;;;;;5090438;28;20020;-67
2021/03/27 06:02:47;;;;;;;42.33;22.85;;;;;;;;;;5092053;28;20048;-67
2021/03/27 06:05:22;;;;;;;43.95;24.02;;;;;;;;;;5091441;28;20032;-66
2021/03/27 06:08:07;;;;;;;58.00;29.77;;;;;;;;;;5092125;28;20077;-66
2021/03/27 06:10:48;;;;;;;55.13;28.90;;;;;;;;;;5089873;28;20035;-66
2021/03/27 06:13:33;;;;;;;52.90;27.63;;;;;;;;;;5089066;28;20459;-66
2021/03/27 06:16:17;;;;;;;51.00;27.08;;;;;;;;;;5090709;28;20429;-66
2021/03/27 06:18:55;;;;;;;60.33;30.00;;;;;;;;;;5091219;28;20356;-66
2021/03/27 06:21:29;;;;;;;58.65;30.67;;;;;;;;;;5091072;28;20020;-66
2021/03/27 06:23:58;;;;;;;56.40;31.42;;;;;;;;;;5090456;28;20028;-67
2021/03/27 06:26:42;;;;;;;62.03;30.92;;;;;;;;;;5092156;28;20036;-65
2021/03/27 06:29:15;;;;;;;51.10;27.38;;;;;;;;;;5092010;28;20419;-66
2021/03/27 06:31:50;;;;;;;52.13;28.50;;;;;;;;;;5092105;28;20383;-65
2021/03/27 06:34:16;;;;;;;53.47;28.90;;;;;;;;;;5092713;28;20036;-66
2021/03/27 06:36:45;;;;;;;50.08;27.48;;;;;;;;;;5093705;28;20103;-66
2021/03/27 06:39:29;;;;;;;46.95;26.63;;;;;;;;;;5092919;28;20016;-65
2021/03/27 06:42:04;;;;;;;51.65;28.00;;;;;;;;;;5094062;28;20025;-65
2021/03/27 06:44:45;;;;;;;54.25;27.75;;;;;;;;;;5092865;28;20028;-67
2021/03/27 06:47:28;;;;;;;50.10;27.20;;;;;;;;;;5093197;28;20078;-65
2021/03/27 06:50:00;;;;;;;54.38;28.00;;;;;;;;;;5096024;28;20075;-67
2021/03/27 06:52:42;;;;;;;48.83;27.58;;;;;;;;;;5097691;28;20112;-67
2021/03/27 06:55:26;;;;;;;53.75;27.33;;;;;;;;;;5096792;28;20028;-66
2021/03/27 06:58:11;;;;;;;51.53;27.48;;;;;;;;;;5095936;28;20024;-67
2021/03/27 07:00:47;;;;;;;49.05;27.08;;;;;;;;;;5096732;28;20043;-68
2021/03/27 07:03:25;;;;;;;45.40;25.85;;;;;;;;;;5096167;28;20423;-68
2021/03/27 07:06:09;;;;;;;49.58;26.75;;;;;;;;;;5097504;28;20056;-69
2021/03/27 07:08:43;;;;;;;55.92;27.08;;;;;;;;;;5095547;28;20035;-68
2021/03/27 07:11:12;;;;;;;50.97;27.20;;;;;;;;;;5096043;28;20577;-66
2021/03/27 07:13:57;;;;;;;57.53;29.75;;;;;;;;;;5093538;28;20535;-66
2021/03/27 07:16:26;;;;;;;56.35;29.45;;;;;;;;;;5093094;28;20039;-67
2021/03/27 07:19:01;;;;;;;56.28;30.45;;;;;;;;;;5096267;28;20020;-68
2021/03/27 07:21:52;;;;;;;53.92;30.77;;;;;;;;;;5096430;28;20476;-67
2021/03/27 07:24:19;;;;;;;60.20;31.90;;;;;;;;;;5058806;28;20455;-70
2021/03/27 07:26:53;;;;;;;60.75;30.95;;;;;;;;;;5093588;28;20028;-66
2021/03/27 07:29:32;;;;;;;55.03;29.55;;;;;;;;;;5079672;28;20080;-68
2021/03/27 07:32:16;;;;;;;47.10;26.83;;;;;;;;;;5095471;28;20470;-67
2021/03/27 07:34:42;;;;;;;48.45;27.00;;;;;;;;;;5095246;28;20028;-68
2021/03/27 07:37:20;;;;;;;56.60;28.10;;;;;;;;;;5092803;28;20459;-67
2021/03/27 07:39:49;;;;;;;50.55;27.55;;;;;;;;;;5095428;28;20031;-66
2021/03/27 07:42:34;;;;;;;54.45;29.80;;;;;;;;;;5092309;28;20028;-67
2021/03/27 07:45:03;;;;;;;48.90;27.25;;;;;;;;;;5093231;28;20028;-68
2021/03/27 07:47:42;;;;;;;52.25;29.23;;;;;;;;;;5091893;28;20024;-68
2021/03/27 07:50:27;;;;;;;50.25;28.30;;;;;;;;;;5094467;28;20030;-71
2021/03/27 07:52:58;;;;;;;51.22;28.58;;;;;;;;;;5086725;28;20036;-70
2021/03/27 07:55:43;;;;;;;44.55;26.55;;;;;;;;;;5075856;28;20060;-70
2021/03/27 07:58:32;;;;;;;43.25;25.15;;;;;;;;;;5085597;28;20107;-71
2021/03/27 08:01:08;;;;;;;39.47;22.85;;;;;;;;;;5056711;28;20032;-71
2021/03/27 08:04:00;;;;;;;38.42;21.90;;;;;;;;;;5093845;28;20048;-71
2021/03/27 08:06:47;;;;;;;35.53;20.38;;;;;;;;;;5061808;28;20437;-68
2021/03/27 08:09:51;;;;;;;40.58;23.17;;;;;;;;;;5094760;28;20024;-67
2021/03/27 08:12:17;;;;;;;50.15;26.90;;;;;;;;;;5046013;28;20024;-67
2021/03/27 08:14:43;;;;;;;49.83;26.17;;;;;;;;;;5095117;28;20069;-69
2021/03/27 08:17:12;;;;;;;45.63;25.83;;;;;;;;;;5095190;28;20034;-69
2021/03/27 08:19:45;;;;;;;42.60;24.80;;;;;;;;;;5094822;28;20061;-67
2021/03/27 08:22:11;;;;;;;;;;;;;;;;;;5095833;28;20030;-68
2021/03/27 08:24:43;;;;;;;43.35;24.58;;;;;;;;;;5095422;28;19904;-68
2021/03/27 08:27:28;;;;;;;41.22;24.17;;;;;;;;;;5094857;28;20081;-67
2021/03/27 08:30:13;;;;;;;40.85;23.50;;;;;;;;;;5095876;28;20099;-69
2021/03/27 08:32:39;;;;;;;39.70;22.52;;;;;;;;;;5094794;28;20046;-67
2021/03/27 08:35:11;;;;;;;40.65;23.92;;;;;;;;;;5095033;28;20077;-67
2021/03/27 08:37:55;;;;;;;43.65;25.73;;;;;;;;;;5094452;28;20048;-69
2021/03/27 08:40:42;;;;;;;49.00;27.67;;;;;;;;;;5093915;28;20093;-66
2021/03/27 08:43:14;;;;;;;47.15;24.95;;;;;;;;;;5092388;28;20020;-67
2021/03/27 08:46:09;;;;;;;39.78;23.98;;;;;;;;;;5094365;28;20043;-68
2021/03/27 08:48:38;;;;;;;41.83;23.20;;;;;;;;;;5093237;28;20020;-67
2021/03/27 08:51:04;;;;;;;39.47;23.20;;;;;;;;;;5091791;28;20091;-66
2021/03/27 08:53:39;;;;;;;40.65;23.13;;;;;;;;;;5094465;28;20032;-67
2021/03/27 08:56:08;;;;;;;37.88;21.83;;;;;;;;;;5091909;28;20091;-68
2021/03/27 08:58:44;;;;;;;39.22;22.65;;;;;;;;;;5094074;28;20016;-67
2021/03/27 09:01:29;;;;;;;34.60;20.55;;;;;;;;;;5090758;28;20020;-66
2021/03/27 09:03:58;;;;;;;38.33;21.13;;;;;;;;;;5091580;28;20100;-67
2021/03/27 09:06:44;;;;;;;36.13;20.48;;;;;;;;;;5091411;28;20016;-67
2021/03/27 09:09:10;;;;;;;37.47;19.90;;;;;;;;;;5075285;28;20024;-67
2021/03/27 09:11:59;;;;;;;40.88;21.63;;;;;;;;;;5093651;28;20064;-67
2021/03/27 09:14:53;;;;;;;35.65;19.20;;;;;;;;;;5091440;28;20044;-66
2021/03/27 09:17:31;;;;;;;34.15;20.15;;;;;;;;;;5093368;28;20036;-68
2021/03/27 09:20:15;;;;;;;33.58;19.33;;;;;;;;;;5093740;28;20065;-67
2021/03/27 09:23:00;;;;;;;35.10;19.70;;;;;;;;;;5093218;28;20424;-66
2021/03/27 09:25:32;;;;;;;37.80;18.35;;;;;;;;;;5091256;28;20089;-68
2021/03/27 09:28:18;;;;;;;33.65;18.25;;;;;;;;;;5094025;28;20027;-66
2021/03/27 09:30:58;;;;;;;37.25;19.60;;;;;;;;;;5093232;28;20031;-66
2021/03/27 09:33:30;;;;;;;36.80;19.50;;;;;;;;;;5091441;28;20043;-66
2021/03/27 09:36:12;;;;;;;33.38;19.08;;;;;;;;;;5090011;28;20081;-67
2021/03/27 09:38:45;;;;;;;26.73;14.07;;;;;;;;;;5091184;28;20436;-67
2021/03/27 09:41:30;;;;;;;33.83;17.65;;;;;;;;;;5092531;28;20027;-66
2021/03/27 09:44:09;;;;;;;34.67;18.90;;;;;;;;;;5092457;28;20043;-67
2021/03/27 09:46:54;;;;;;;32.35;18.85;;;;;;;;;;5092051;28;20043;-67
2021/03/27 09:49:43;;;;;;;36.38;18.00;;;;;;;;;;5092627;28;20512;-65
2021/03/27 09:52:09;;;;;;;32.65;16.98;;;;;;;;;;5090775;28;20378;-70
2021/03/27 09:54:47;;;;;;;29.95;17.63;;;;;;;;;;5093522;28;20063;-65
2021/03/27 09:57:22;;;;;;;30.70;15.60;;;;;;;;;;5093266;28;20109;-69
2021/03/27 09:59:57;;;;;;;31.30;16.55;;;;;;;;;;5093219;28;20024;-70
2021/03/27 10:02:30;;;;;;;35.25;16.77;;;;;;;;;;5090147;28;20052;-70
2021/03/27 10:05:14;;;;;;;25.17;14.10;;;;;;;;;;5092995;28;20020;-67
2021/03/27 10:07:40;;;;;;;31.50;15.50;;;;;;;;;;5090980;28;20556;-69
2021/03/27 10:10:17;;;;;;;24.85;14.20;;;;;;;;;;5093546;28;20371;-68
2021/03/27 10:12:58;;;;;;;32.40;15.75;;;;;;;;;;5090608;28;20099;-68
2021/03/27 10:15:33;;;;;;;29.08;14.95;;;;;;;;;;5091070;28;20554;-67
2021/03/27 10:18:06;;;;;;;30.90;15.32;;;;;;;;;;5092910;28;20024;-68
2021/03/27 10:20:35;;;;;;;27.85;16.02;;;;;;;;;;5093539;28;20024;-70
2021/03/27 10:23:19;;;;;;;28.50;16.38;;;;;;;;;;5093398;28;20081;-69
2021/03/27 10:26:05;;;;;;;28.48;15.90;;;;;;;;;;5075427;28;20032;-71
2021/03/27 10:28:35;;;;;;;29.65;15.68;;;;;;;;;;5077147;28;20025;-71
2021/03/27 10:31:16;;;;;;;32.78;15.73;;;;;;;;;;5076096;28;20062;-71
2021/03/27 10:33:48;;;;;;;29.13;14.90;;;;;;;;;;5075715;28;20452;-72
2021/03/27 10:36:30;;;;;;;27.30;15.00;;;;;;;;;;5077463;28;20028;-71
2021/03/27 10:39:14;;;;;;;25.75;14.77;;;;;;;;;;5077098;28;20024;-72
2021/03/27 10:42:00;;;;;;;29.70;14.85;;;;;;;;;;5075818;28;20025;-75
2021/03/27 10:44:38;;;;;;;24.98;14.40;;;;;;;;;;5084154;28;20024;-73
2021/03/27 10:47:13;;;;;;;27.88;15.00;;;;;;;;;;5093586;28;20016;-71
2021/03/27 10:49:47;;;;;;;24.67;14.25;;;;;;;;;;5094260;28;20028;-71
2021/03/27 10:52:13;;;;;;;28.15;14.55;;;;;;;;;;5089563;28;20033;-70
2021/03/27 10:54:58;;;;;;;26.95;14.45;;;;;;;;;;5084325;28;20486;-70
2021/03/27 10:57:40;;;;;;;23.67;13.85;;;;;;;;;;5095475;28;20069;-69
2021/03/27 11:00:13;;;;;;;23.35;13.35;;;;;;;;;;5094164;28;20016;-71
2021/03/27 11:02:39;;;;;;;;;;;;;;;;;;5097316;28;20056;-69
2021/03/27 11:05:08;;;;;;;25.90;13.10;;;;;;;;;;5095665;28;19911;-70
2021/03/27 11:07:53;;;;;;;22.92;12.77;;;;;;;;;;5095351;28;20027;-70
2021/03/27 11:10:38;;;;;;;23.27;12.98;;;;;;;;;;5095043;28;20027;-70
2021/03/27 11:13:22;;;;;;;25.25;13.63;;;;;;;;;;5096427;28;20119;-70
2021/03/27 11:16:07;;;;;;;25.00;14.40;;;;;;;;;;5074787;28;20086;-71
2021/03/27 11:18:48;;;;;;;24.90;14.30;;;;;;;;;;5098879;28;20533;-69
2021/03/27 11:21:15;;;;;;;21.90;13.40;;;;;;;;;;5073337;28;20021;-70
2021/03/27 11:23:44;;;;;;;22.05;12.80;;;;;;;;;;5074308;28;20029;-71
2021/03/27 11:26:16;;;;;;;25.20;12.82;;;;;;;;;;5075836;28;20410;-72
2021/03/27 11:28:51;;;;;;;25.27;12.15;;;;;;;;;;5075941;28;20118;-71
2021/03/27 11:31:17;;;;;;;21.52;12.05;;;;;;;;;;5076181;28;20016;-69
2021/03/27 11:33:52;;;;;;;22.00;11.25;;;;;;;;;;5076231;28;20060;-70
2021/03/27 11:36:22;;;;;;;24.63;11.73;;;;;;;;;;5075310;28;20066;-70
2021/03/27 11:39:11;;;;;;;21.25;10.18;;;;;;;;;;5076138;28;20341;-70
2021/03/27 11:42:06;;;;;;;19.50;10.82;;;;;;;;;;5075701;28;20021;-70
2021/03/27 11:44:47;;;;;;;22.27;12.18;;;;;;;;;;5070136;28;20029;-70
2021/03/27 11:47:29;;;;;;;25.00;11.45;;;;;;;;;;5075006;28;20487;-70
2021/03/27 11:50:03;;;;;;;19.05;11.77;;;;;;;;;;5075401;28;20027;-72
2021/03/27 11:52:40;;;;;;;25.42;11.40;;;;;;;;;;5076171;28;20028;-70
2021/03/27 11:55:17;;;;;;;18.98;11.40;;;;;;;;;;5077421;28;20041;-71
2021/03/27 11:57:44;;;;;;;19.50;10.95;;;;;;;;;;5091255;28;20024;-72
2021/03/27 12:00:47;;;;;;;22.20;11.15;;;;;;;;;;5091109;28;20363;-69
2021/03/27 12:03:40;;;;;;;17.17;10.68;;;;;;;;;;5082778;28;20178;-70
2021/03/27 12:06:24;;;;;;;20.38;10.20;;;;;;;;;;5054347;28;20383;-70
2021/03/27 12:09:08;;;;;;;23.70;11.07;;;;;;;;;;5092614;28;20089;-69
2021/03/27 12:11:50;;;;;;;16.80;10.15;;;;;;;;;;5094849;28;20108;-69
2021/03/27 12:14:28;;;;;;;19.00;10.35;;;;;;;;;;5093828;28;20089;-70
2021/03/27 12:17:14;;;;;;;14.75;9.43;;;;;;;;;;5095336;28;20027;-69
2021/03/27 12:19:49;;;;;;;19.25;10.38;;;;;;;;;;5094995;28;20097;-70
2021/03/27 12:22:25;;;;;;;16.70;9.70;;;;;;;;;;5095590;28;20099;-70
2021/03/27 12:24:51;;;;;;;15.32;9.32;;;;;;;;;;5095271;28;20023;-70
2021/03/27 12:27:27;;;;;;;25.08;11.15;;;;;;;;;;5095640;28;20048;-68
2021/03/27 12:29:53;;;;;;;17.70;10.25;;;;;;;;;;5094234;28;20391;-71
2021/03/27 12:32:27;;;;;;;17.60;10.43;;;;;;;;;;5095027;28;20024;-70
2021/03/27 12:34:55;;;;;;;15.52;9.27;;;;;;;;;;5095412;28;20036;-71
2021/03/27 12:37:26;;;;;;;20.25;12.35;;;;;;;;;;5095476;28;20140;-71
2021/03/27 12:40:01;;;;;;;17.67;10.60;;;;;;;;;;5094638;28;20024;-70
2021/03/27 12:42:27;;;;;;;16.73;10.18;;;;;;;;;;5095405;28;20102;-70
2021/03/27 12:44:55;;;;;;;16.73;9.68;;;;;;;;;;5095038;28;20032;-71
2021/03/27 12:47:30;;;;;;;16.55;9.93;;;;;;;;;;5093515;28;20028;-70
2021/03/27 12:50:08;;;;;;;16.67;9.60;;;;;;;;;;5093699;28;20084;-72
2021/03/27 12:52:37;;;;;;;17.40;9.43;;;;;;;;;;5087788;28;20029;-71
2021/03/27 12:55:16;;;;;;;14.35;8.95;;;;;;;;;;5081019;28;20028;-69
2021/03/27 12:57:45;;;;;;;14.25;8.52;;;;;;;;;;5073296;28;20116;-69
2021/03/27 13:00:30;;;;;;;13.55;7.68;;;;;;;;;;5074194;28;20021;-69
2021/03/27 13:03:14;;;;;;;14.52;7.57;;;;;;;;;;5094256;28;20104;-66
2021/03/27 13:05:40;;;;;;;22.02;7.97;;;;;;;;;;5094245;28;20153;-69
2021/03/27 13:08:09;;;;;;;10.52;6.28;;;;;;;;;;5093910;28;20111;-69
2021/03/27 13:10:46;;;;;;;15.85;7.00;;;;;;;;;;5092959;28;20059;-69
2021/03/27 13:13:17;;;;;;;12.50;7.57;;;;;;;;;;5092823;28;20462;-69
2021/03/27 13:15:46;;;;;;;11.80;7.13;;;;;;;;;;5095488;28;20456;-68
2021/03/27 13:18:15;;;;;;;13.85;6.82;;;;;;;;;;5094628;28;20042;-68
2021/03/27 13:20:48;;;;;;;11.27;7.00;;;;;;;;;;5093968;28;20095;-68
2021/03/27 13:23:23;;;;;;;12.70;7.15;;;;;;;;;;5094460;28;20494;-68
2021/03/27 13:25:52;;;;;;;12.77;7.75;;;;;;;;;;5094160;28;20468;-69
2021/03/27 13:28:29;;;;;;;13.57;8.07;;;;;;;;;;5094107;28;20099;-69
2021/03/27 13:30:57;;;;;;;13.18;7.32;;;;;;;;;;5093087;28;20525;-69
2021/03/27 13:33:28;;;;;;;10.27;6.57;;;;;;;;;;5092490;28;20035;-68
2021/03/27 13:36:00;;;;;;;9.37;4.43;;;;;;;;;;5093245;28;20469;-69
2021/03/27 13:38:46;;;;;;;14.02;6.82;;;;;;;;;;5093491;28;20016;-69
2021/03/27 13:41:24;;;;;;;13.00;6.50;;;;;;;;;;5030096;28;20029;-69
2021/03/27 13:43:52;;;;;;;11.25;6.22;;;;;;;;;;5031148;28;20091;-69
2021/03/27 13:46:30;;;;;;;10.93;6.30;;;;;;;;;;5020326;28;20026;-71
2021/03/27 13:49:04;;;;;;;11.35;6.35;;;;;;;;;;5027914;28;20022;-70
2021/03/27 13:51:37;;;;;;;12.10;6.43;;;;;;;;;;5014280;28;20022;-68
2021/03/27 13:54:06;;;;;;;11.13;6.85;;;;;;;;;;5030898;28;20033;-68
2021/03/27 13:56:41;;;;;;;11.65;6.38;;;;;;;;;;5030588;28;20087;-69
2021/03/27 13:59:10;;;;;;;10.45;6.45;;;;;;;;;;5030652;28;20033;-69
2021/03/27 14:02:08;;;;;;;11.60;6.70;;;;;;;;;;5029706;28;20017;-69
2021/03/27 14:04:40;;;;;;;11.93;6.97;;;;;;;;;;4971586;28;20039;-68
2021/03/27 14:07:30;;;;;;;10.98;6.60;;;;;;;;;;4971803;28;20117;-68
2021/03/27 14:10:16;;;;;;;10.52;6.35;;;;;;;;;;4971518;28;20105;-69
2021/03/27 14:12:46;;;;;;;12.75;6.47;;;;;;;;;;4969810;28;20043;-69
2021/03/27 14:15:16;;;;;;;9.65;6.07;;;;;;;;;;4971812;28;20089;-70
2021/03/27 14:17:45;;;;;;;14.07;6.60;;;;;;;;;;4979786;28;20135;-67
2021/03/27 14:20:14;;;;;;;11.90;7.05;;;;;;;;;;5011172;28;20076;-67
2021/03/27 14:22:58;;;;;;;11.13;6.38;;;;;;;;;;4987640;28;20030;-68
2021/03/27 14:25:25;;;;;;;12.13;6.57;;;;;;;;;;5006186;28;20022;-68
2021/03/27 14:28:00;;;;;;;13.40;6.60;;;;;;;;;;5004612;28;20083;-68
2021/03/27 14:30:26;;;;;;;12.60;6.60;;;;;;;;;;5008731;28;20440;-68
2021/03/27 14:32:57;;;;;;;11.43;6.63;;;;;;;;;;4986735;28;20034;-68
2021/03/27 14:35:26;;;;;;;13.05;6.32;;;;;;;;;;5010891;28;20394;-68
2021/03/27 14:38:04;;;;;;;12.85;7.75;;;;;;;;;;4994005;28;20062;-67
2021/03/27 14:40:35;;;;;;;12.35;6.20;;;;;;;;;;5054987;28;20115;-69
2021/03/27 14:43:14;;;;;;;9.77;6.32;;;;;;;;;;5090934;28;20483;-69
2021/03/27 14:45:49;;;;;;;12.43;6.53;;;;;;;;;;5090366;28;20464;-69
2021/03/27 14:48:23;;;;;;;12.93;6.82;;;;;;;;;;5090138;28;20684;-70
2021/03/27 14:51:13;;;;;;;12.70;7.00;;;;;;;;;;5091475;28;20070;-70
2021/03/27 14:53:47;;;;;;;10.32;5.90;;;;;;;;;;5065589;28;20037;-71
2021/03/27 14:56:21;;;;;;;12.23;6.07;;;;;;;;;;5089393;28;20027;-69
2021/03/27 14:59:06;;;;;;;9.68;5.53;;;;;;;;;;5091515;28;20027;-69
2021/03/27 15:01:36;;;;;;;10.57;5.50;;;;;;;;;;5091878;28;20024;-68
2021/03/27 15:04:16;;;;;;;12.60;5.72;;;;;;;;;;5091770;28;20036;-70
2021/03/27 15:06:45;;;;;;;10.70;5.50;;;;;;;;;;5089485;28;20016;-67
2021/03/27 15:09:33;;;;;;;12.02;5.63;;;;;;;;;;5092780;28;20013;-68
2021/03/27 15:12:11;;;;;;;16.52;6.38;;;;;;;;;;5094465;28;20028;-69